Chocowinity, North Carolina
Current Conditions -  °F | °C
As of 3:35 PM on Thursday 27 Nov 2014 (Local Time) from KOCW Reporting Station
Broken Clouds Broken Clouds  
Wind Chill: 40°   Ceiling: 2100
Heat Index: 45°   Visibility: 10mi
Dew Point: 40°   Wind: 10mph
Humidity: 83%   Direction: 320°NW
Pressure: 30.04"   Gusts: NA
Location:  35.51°N, 77.1°W
Report Text: KOCW 272035Z AUTO 32009KT 10SM SCT014 BKN021 BKN047 07/05 A3004 RMK AO2 T00730046
Loading
Personal Weather Stations






























Interactive Weather Map New forecast layout! Learn more

10-Day Weather Forecast

Advertisements
Track Severe Weather on mobile